sensor_id;sensor_type;location;lat;lon;timestamp;temperature;humidity
4985;DHT22;2509;49.902;8.600;2023-02-22T00:01:01;6.10;99.90
4985;DHT22;2509;49.902;8.600;2023-02-22T00:04:18;6.10;99.90
4985;DHT22;2509;49.902;8.600;2023-02-22T00:07:20;6.10;99.90
4985;DHT22;2509;49.902;8.600;2023-02-22T00:10:23;6.00;99.90
4985;DHT22;2509;49.902;8.600;2023-02-22T00:13:27;6.00;99.90
4985;DHT22;2509;49.902;8.600;2023-02-22T00:16:29;6.00;99.90
4985;DHT22;2509;49.902;8.600;2023-02-22T00:19:31;5.90;99.90
4985;DHT22;2509;49.902;8.600;2023-02-22T00:22:33;5.90;99.90
4985;DHT22;2509;49.902;8.600;2023-02-22T00:25:35;5.90;99.90
4985;DHT22;2509;49.902;8.600;2023-02-22T00:28:38;5.80;99.90
4985;DHT22;2509;49.902;8.600;2023-02-22T00:31:41;5.80;99.90
4985;DHT22;2509;49.902;8.600;2023-02-22T00:34:43;5.70;99.90
4985;DHT22;2509;49.902;8.600;2023-02-22T00:37:46;5.60;99.90
4985;DHT22;2509;49.902;8.600;2023-02-22T00:40:48;5.60;99.90
4985;DHT22;2509;49.902;8.600;2023-02-22T00:43:51;5.60;99.90
4985;DHT22;2509;49.902;8.600;2023-02-22T00:46:53;5.60;99.90
4985;DHT22;2509;49.902;8.600;2023-02-22T00:49:55;5.70;99.90
4985;DHT22;2509;49.902;8.600;2023-02-22T00:52:58;5.70;99.90
4985;DHT22;2509;49.902;8.600;2023-02-22T00:56:01;5.70;99.90
4985;DHT22;2509;49.902;8.600;2023-02-22T00:59:04;5.70;99.90
4985;DHT22;2509;49.902;8.600;2023-02-22T01:02:05;5.70;99.90
4985;DHT22;2509;49.902;8.600;2023-02-22T01:05:11;5.60;99.90
4985;DHT22;2509;49.902;8.600;2023-02-22T01:08:14;5.60;99.90
4985;DHT22;2509;49.902;8.600;2023-02-22T01:11:17;5.60;99.90
4985;DHT22;2509;49.902;8.600;2023-02-22T01:14:20;5.60;99.90
4985;DHT22;2509;49.902;8.600;2023-02-22T01:17:23;5.60;99.90
4985;DHT22;2509;49.902;8.600;2023-02-22T01:20:26;5.60;99.90
4985;DHT22;2509;49.902;8.600;2023-02-22T01:23:28;5.50;99.90
4985;DHT22;2509;49.902;8.600;2023-02-22T01:26:30;5.50;99.90
4985;DHT22;2509;49.902;8.600;2023-02-22T01:29:33;5.40;99.90
4985;DHT22;2509;49.902;8.600;2023-02-22T01:32:36;5.40;99.90
4985;DHT22;2509;49.902;8.600;2023-02-22T01:35:38;5.40;99.90
4985;DHT22;2509;49.902;8.600;2023-02-22T01:38:40;5.30;99.90
4985;DHT22;2509;49.902;8.600;2023-02-22T01:41:42;5.30;99.90
4985;DHT22;2509;49.902;8.600;2023-02-22T01:48:05;5.20;99.90
4985;DHT22;2509;49.902;8.600;2023-02-22T01:51:11;5.20;99.90
4985;DHT22;2509;49.902;8.600;2023-02-22T01:54:17;5.10;99.90
4985;DHT22;2509;49.902;8.600;2023-02-22T01:57:23;5.10;99.90
4985;DHT22;2509;49.902;8.600;2023-02-22T02:00:27;5.10;99.90
4985;DHT22;2509;49.902;8.600;2023-02-22T02:03:32;5.00;99.90
4985;DHT22;2509;49.902;8.600;2023-02-22T02:06:35;4.90;99.90
4985;DHT22;2509;49.902;8.600;2023-02-22T02:09:41;4.80;99.90
4985;DHT22;2509;49.902;8.600;2023-02-22T02:12:46;4.80;99.90
4985;DHT22;2509;49.902;8.600;2023-02-22T02:15:53;4.70;99.90
4985;DHT22;2509;49.902;8.600;2023-02-22T02:18:54;4.70;99.90
4985;DHT22;2509;49.902;8.600;2023-02-22T02:22:09;4.70;99.90
4985;DHT22;2509;49.902;8.600;2023-02-22T02:25:55;4.70;99.90
4985;DHT22;2509;49.902;8.600;2023-02-22T02:29:21;4.70;99.90
4985;DHT22;2509;49.902;8.600;2023-02-22T02:32:41;4.50;99.90
4985;DHT22;2509;49.902;8.600;2023-02-22T02:35:49;4.50;99.90
4985;DHT22;2509;49.902;8.600;2023-02-22T02:38:59;4.60;99.90
4985;DHT22;2509;49.902;8.600;2023-02-22T02:42:08;4.60;99.90
4985;DHT22;2509;49.902;8.600;2023-02-22T02:45:15;4.60;99.90
4985;DHT22;2509;49.902;8.600;2023-02-22T02:48:24;4.60;99.90
4985;DHT22;2509;49.902;8.600;2023-02-22T02:51:29;4.50;99.90
4985;DHT22;2509;49.902;8.600;2023-02-22T02:54:33;4.50;99.90
4985;DHT22;2509;49.902;8.600;2023-02-22T02:57:37;4.40;99.90
4985;DHT22;2509;49.902;8.600;2023-02-22T03:00:41;4.40;99.90
4985;DHT22;2509;49.902;8.600;2023-02-22T03:03:59;4.40;99.90
4985;DHT22;2509;49.902;8.600;2023-02-22T03:07:16;4.30;99.90
4985;DHT22;2509;49.902;8.600;2023-02-22T03:10:37;4.20;99.90
4985;DHT22;2509;49.902;8.600;2023-02-22T03:13:49;4.10;99.90
4985;DHT22;2509;49.902;8.600;2023-02-22T03:16:57;4.10;99.90
4985;DHT22;2509;49.902;8.600;2023-02-22T03:20:09;4.20;99.90
4985;DHT22;2509;49.902;8.600;2023-02-22T03:23:18;4.20;99.90
4985;DHT22;2509;49.902;8.600;2023-02-22T03:26:30;4.20;99.90
4985;DHT22;2509;49.902;8.600;2023-02-22T03:29:33;4.20;99.90
4985;DHT22;2509;49.902;8.600;2023-02-22T03:32:40;4.20;99.90
4985;DHT22;2509;49.902;8.600;2023-02-22T03:35:48;4.20;99.90
4985;DHT22;2509;49.902;8.600;2023-02-22T03:38:57;4.20;99.90
4985;DHT22;2509;49.902;8.600;2023-02-22T03:42:03;4.20;99.90
4985;DHT22;2509;49.902;8.600;2023-02-22T03:45:08;4.10;99.90
4985;DHT22;2509;49.902;8.600;2023-02-22T03:48:18;4.00;99.90
4985;DHT22;2509;49.902;8.600;2023-02-22T03:51:22;4.00;99.90
4985;DHT22;2509;49.902;8.600;2023-02-22T03:54:25;3.90;99.90
4985;DHT22;2509;49.902;8.600;2023-02-22T03:57:31;3.90;99.90
4985;DHT22;2509;49.902;8.600;2023-02-22T04:00:34;3.90;99.90
4985;DHT22;2509;49.902;8.600;2023-02-22T04:03:36;4.00;99.90
4985;DHT22;2509;49.902;8.600;2023-02-22T04:06:40;4.00;99.90
4985;DHT22;2509;49.902;8.600;2023-02-22T04:09:42;4.00;99.90
4985;DHT22;2509;49.902;8.600;2023-02-22T04:12:44;3.90;99.90
4985;DHT22;2509;49.902;8.600;2023-02-22T04:15:46;3.90;99.90
4985;DHT22;2509;49.902;8.600;2023-02-22T04:18:47;3.90;99.90
4985;DHT22;2509;49.902;8.600;2023-02-22T04:21:50;3.90;99.90
4985;DHT22;2509;49.902;8.600;2023-02-22T04:24:52;3.80;99.90
4985;DHT22;2509;49.902;8.600;2023-02-22T04:27:54;3.80;99.90
4985;DHT22;2509;49.902;8.600;2023-02-22T04:30:56;3.80;99.90
4985;DHT22;2509;49.902;8.600;2023-02-22T04:33:57;3.80;99.90
4985;DHT22;2509;49.902;8.600;2023-02-22T04:37:00;3.70;99.90
4985;DHT22;2509;49.902;8.600;2023-02-22T04:40:04;3.70;99.90
4985;DHT22;2509;49.902;8.600;2023-02-22T04:43:07;3.70;99.90
4985;DHT22;2509;49.902;8.600;2023-02-22T04:46:08;3.70;99.90
4985;DHT22;2509;49.902;8.600;2023-02-22T04:49:10;3.70;99.90
4985;DHT22;2509;49.902;8.600;2023-02-22T04:52:13;3.60;99.90
4985;DHT22;2509;49.902;8.600;2023-02-22T04:55:15;3.60;99.90
4985;DHT22;2509;49.902;8.600;2023-02-22T04:58:17;3.60;99.90
4985;DHT22;2509;49.902;8.600;2023-02-22T05:01:19;3.60;99.90
4985;DHT22;2509;49.902;8.600;2023-02-22T05:04:20;3.50;99.90
4985;DHT22;2509;49.902;8.600;2023-02-22T05:07:23;3.50;99.90
4985;DHT22;2509;49.902;8.600;2023-02-22T05:10:25;3.50;99.90
4985;DHT22;2509;49.902;8.600;2023-02-22T05:13:27;3.50;99.90
4985;DHT22;2509;49.902;8.600;2023-02-22T05:16:29;3.50;99.90
4985;DHT22;2509;49.902;8.600;2023-02-22T05:19:30;3.50;99.90
4985;DHT22;2509;49.902;8.600;2023-02-22T05:22:34;3.50;99.90
4985;DHT22;2509;49.902;8.600;2023-02-22T05:25:35;3.50;99.90
4985;DHT22;2509;49.902;8.600;2023-02-22T05:28:38;3.40;99.90
4985;DHT22;2509;49.902;8.600;2023-02-22T05:31:39;3.30;99.90
4985;DHT22;2509;49.902;8.600;2023-02-22T05:34:41;3.30;99.90
4985;DHT22;2509;49.902;8.600;2023-02-22T05:37:44;3.40;99.90
4985;DHT22;2509;49.902;8.600;2023-02-22T05:40:46;3.40;99.90
4985;DHT22;2509;49.902;8.600;2023-02-22T05:43:48;3.30;99.90
4985;DHT22;2509;49.902;8.600;2023-02-22T05:46:49;3.30;99.90
4985;DHT22;2509;49.902;8.600;2023-02-22T05:49:51;3.40;99.90
4985;DHT22;2509;49.902;8.600;2023-02-22T05:52:54;3.30;99.90
4985;DHT22;2509;49.902;8.600;2023-02-22T05:55:56;3.40;99.90
4985;DHT22;2509;49.902;8.600;2023-02-22T05:58:58;3.40;99.90
4985;DHT22;2509;49.902;8.600;2023-02-22T06:01:59;3.40;99.90
4985;DHT22;2509;49.902;8.600;2023-02-22T06:05:01;3.50;99.90
4985;DHT22;2509;49.902;8.600;2023-02-22T06:08:06;3.50;99.90
4985;DHT22;2509;49.902;8.600;2023-02-22T06:11:07;3.50;99.90
4985;DHT22;2509;49.902;8.600;2023-02-22T06:14:09;3.60;99.90
4985;DHT22;2509;49.902;8.600;2023-02-22T06:17:12;3.60;99.90
4985;DHT22;2509;49.902;8.600;2023-02-22T06:20:17;3.60;99.90
4985;DHT22;2509;49.902;8.600;2023-02-22T06:23:20;3.60;99.90
4985;DHT22;2509;49.902;8.600;2023-02-22T06:26:22;3.70;99.90
4985;DHT22;2509;49.902;8.600;2023-02-22T06:29:24;3.70;99.90
4985;DHT22;2509;49.902;8.600;2023-02-22T06:32:26;3.70;99.90
4985;DHT22;2509;49.902;8.600;2023-02-22T06:35:28;3.70;99.90
4985;DHT22;2509;49.902;8.600;2023-02-22T06:38:31;3.70;99.90
4985;DHT22;2509;49.902;8.600;2023-02-22T06:41:35;3.70;99.90
4985;DHT22;2509;49.902;8.600;2023-02-22T06:44:37;3.70;99.90
4985;DHT22;2509;49.902;8.600;2023-02-22T06:47:39;3.60;99.90
4985;DHT22;2509;49.902;8.600;2023-02-22T06:50:41;3.70;99.90
4985;DHT22;2509;49.902;8.600;2023-02-22T06:53:44;3.70;99.90
4985;DHT22;2509;49.902;8.600;2023-02-22T06:56:46;3.70;99.90
4985;DHT22;2509;49.902;8.600;2023-02-22T06:59:48;3.70;99.90
4985;DHT22;2509;49.902;8.600;2023-02-22T07:02:51;3.80;99.90
4985;DHT22;2509;49.902;8.600;2023-02-22T07:05:52;3.80;99.90
4985;DHT22;2509;49.902;8.600;2023-02-22T07:08:56;3.80;99.90
4985;DHT22;2509;49.902;8.600;2023-02-22T07:11:58;3.90;99.90
4985;DHT22;2509;49.902;8.600;2023-02-22T07:14:59;3.90;99.90
4985;DHT22;2509;49.902;8.600;2023-02-22T07:18:01;3.80;99.90
4985;DHT22;2509;49.902;8.600;2023-02-22T07:21:03;3.70;99.90
4985;DHT22;2509;49.902;8.600;2023-02-22T07:24:07;3.70;99.90
4985;DHT22;2509;49.902;8.600;2023-02-22T07:27:09;3.60;99.90
4985;DHT22;2509;49.902;8.600;2023-02-22T07:30:15;3.50;99.90
4985;DHT22;2509;49.902;8.600;2023-02-22T07:33:17;3.50;99.90
4985;DHT22;2509;49.902;8.600;2023-02-22T07:36:19;3.50;99.90
4985;DHT22;2509;49.902;8.600;2023-02-22T07:39:22;3.50;99.90
4985;DHT22;2509;49.902;8.600;2023-02-22T07:42:24;3.70;99.90
4985;DHT22;2509;49.902;8.600;2023-02-22T07:45:27;3.70;99.90
4985;DHT22;2509;49.902;8.600;2023-02-22T07:48:30;3.70;99.90
4985;DHT22;2509;49.902;8.600;2023-02-22T07:51:32;3.80;99.90
4985;DHT22;2509;49.902;8.600;2023-02-22T07:54:35;3.80;99.90
4985;DHT22;2509;49.902;8.600;2023-02-22T07:57:36;3.80;99.90
4985;DHT22;2509;49.902;8.600;2023-02-22T08:00:39;3.80;99.90
4985;DHT22;2509;49.902;8.600;2023-02-22T08:03:43;3.90;99.90
4985;DHT22;2509;49.902;8.600;2023-02-22T08:06:46;3.80;99.90
4985;DHT22;2509;49.902;8.600;2023-02-22T08:09:51;3.90;99.90
4985;DHT22;2509;49.902;8.600;2023-02-22T08:12:53;4.00;99.90
4985;DHT22;2509;49.902;8.600;2023-02-22T08:15:55;4.10;99.90
4985;DHT22;2509;49.902;8.600;2023-02-22T08:18:57;4.10;99.90
4985;DHT22;2509;49.902;8.600;2023-02-22T08:21:59;4.00;99.90
4985;DHT22;2509;49.902;8.600;2023-02-22T08:25:02;4.10;99.90
4985;DHT22;2509;49.902;8.600;2023-02-22T08:28:06;4.20;99.90
4985;DHT22;2509;49.902;8.600;2023-02-22T08:31:08;4.30;99.90
4985;DHT22;2509;49.902;8.600;2023-02-22T08:34:10;4.40;99.90
4985;DHT22;2509;49.902;8.600;2023-02-22T08:37:12;4.40;99.90
4985;DHT22;2509;49.902;8.600;2023-02-22T08:40:16;4.50;99.90
4985;DHT22;2509;49.902;8.600;2023-02-22T08:43:19;4.70;99.90
4985;DHT22;2509;49.902;8.600;2023-02-22T08:46:21;4.80;99.90
4985;DHT22;2509;49.902;8.600;2023-02-22T08:49:23;4.80;99.90
4985;DHT22;2509;49.902;8.600;2023-02-22T08:52:25;5.00;99.90
4985;DHT22;2509;49.902;8.600;2023-02-22T08:55:29;5.20;99.90
4985;DHT22;2509;49.902;8.600;2023-02-22T08:58:31;5.40;99.90
4985;DHT22;2509;49.902;8.600;2023-02-22T09:01:33;5.60;99.90
4985;DHT22;2509;49.902;8.600;2023-02-22T09:04:34;5.80;99.90
4985;DHT22;2509;49.902;8.600;2023-02-22T09:07:37;5.90;99.90
4985;DHT22;2509;49.902;8.600;2023-02-22T09:10:42;6.10;99.90
4985;DHT22;2509;49.902;8.600;2023-02-22T09:13:45;6.10;99.90
4985;DHT22;2509;49.902;8.600;2023-02-22T09:16:46;6.10;99.90
4985;DHT22;2509;49.902;8.600;2023-02-22T09:19:48;6.10;99.90
4985;DHT22;2509;49.902;8.600;2023-02-22T09:22:50;6.20;99.90
4985;DHT22;2509;49.902;8.600;2023-02-22T09:25:53;6.10;99.90
4985;DHT22;2509;49.902;8.600;2023-02-22T09:28:55;6.20;99.90
4985;DHT22;2509;49.902;8.600;2023-02-22T09:31:57;6.30;99.90
4985;DHT22;2509;49.902;8.600;2023-02-22T09:34:59;6.50;99.90
4985;DHT22;2509;49.902;8.600;2023-02-22T09:38:02;6.70;99.90
4985;DHT22;2509;49.902;8.600;2023-02-22T09:41:14;6.70;99.90
4985;DHT22;2509;49.902;8.600;2023-02-22T09:44:22;6.90;99.90
4985;DHT22;2509;49.902;8.600;2023-02-22T09:47:35;7.00;99.90
4985;DHT22;2509;49.902;8.600;2023-02-22T09:50:41;7.20;99.90
4985;DHT22;2509;49.902;8.600;2023-02-22T09:53:45;7.40;99.90
4985;DHT22;2509;49.902;8.600;2023-02-22T09:56:52;7.50;99.90
4985;DHT22;2509;49.902;8.600;2023-02-22T09:59:59;7.70;99.90
4985;DHT22;2509;49.902;8.600;2023-02-22T10:03:19;7.80;99.90
4985;DHT22;2509;49.902;8.600;2023-02-22T10:06:23;8.00;99.90
4985;DHT22;2509;49.902;8.600;2023-02-22T10:09:26;8.20;99.90
4985;DHT22;2509;49.902;8.600;2023-02-22T10:12:37;8.40;99.90
4985;DHT22;2509;49.902;8.600;2023-02-22T10:15:47;8.60;99.90
4985;DHT22;2509;49.902;8.600;2023-02-22T10:19:10;8.70;99.90
4985;DHT22;2509;49.902;8.600;2023-02-22T10:22:25;8.70;99.90
4985;DHT22;2509;49.902;8.600;2023-02-22T10:25:35;8.80;99.90
4985;DHT22;2509;49.902;8.600;2023-02-22T10:28:44;8.90;99.90
4985;DHT22;2509;49.902;8.600;2023-02-22T10:31:52;9.10;99.90
4985;DHT22;2509;49.902;8.600;2023-02-22T10:34:58;9.30;99.90
4985;DHT22;2509;49.902;8.600;2023-02-22T10:38:12;9.30;99.90
4985;DHT22;2509;49.902;8.600;2023-02-22T10:41:21;9.40;99.90
4985;DHT22;2509;49.902;8.600;2023-02-22T10:47:34;9.60;99.90
4985;DHT22;2509;49.902;8.600;2023-02-22T10:50:39;9.60;99.90
4985;DHT22;2509;49.902;8.600;2023-02-22T10:53:41;9.80;99.90
4985;DHT22;2509;49.902;8.600;2023-02-22T10:56:46;10.00;99.90
4985;DHT22;2509;49.902;8.600;2023-02-22T10:59:48;10.00;99.90
4985;DHT22;2509;49.902;8.600;2023-02-22T11:02:55;10.20;99.90
4985;DHT22;2509;49.902;8.600;2023-02-22T11:06:17;10.40;99.90
4985;DHT22;2509;49.902;8.600;2023-02-22T11:09:20;10.60;99.90
4985;DHT22;2509;49.902;8.600;2023-02-22T11:12:28;10.70;99.90
4985;DHT22;2509;49.902;8.600;2023-02-22T11:15:31;10.80;99.90
4985;DHT22;2509;49.902;8.600;2023-02-22T11:18:34;10.80;99.90
4985;DHT22;2509;49.902;8.600;2023-02-22T11:21:36;11.00;99.90
4985;DHT22;2509;49.902;8.600;2023-02-22T11:24:44;11.00;99.90
4985;DHT22;2509;49.902;8.600;2023-02-22T11:27:47;11.10;99.90
4985;DHT22;2509;49.902;8.600;2023-02-22T11:30:50;11.30;99.90
4985;DHT22;2509;49.902;8.600;2023-02-22T11:33:55;11.40;99.90
4985;DHT22;2509;49.902;8.600;2023-02-22T11:37:15;11.60;99.90
4985;DHT22;2509;49.902;8.600;2023-02-22T11:40:19;11.80;99.90
4985;DHT22;2509;49.902;8.600;2023-02-22T11:43:21;12.20;99.90
4985;DHT22;2509;49.902;8.600;2023-02-22T11:46:25;12.40;99.90
4985;DHT22;2509;49.902;8.600;2023-02-22T11:49:34;12.70;99.90
4985;DHT22;2509;49.902;8.600;2023-02-22T11:52:41;13.00;99.90
4985;DHT22;2509;49.902;8.600;2023-02-22T11:59:45;13.60;99.90
4985;DHT22;2509;49.902;8.600;2023-02-22T12:06:48;13.80;99.90
4985;DHT22;2509;49.902;8.600;2023-02-22T12:10:07;13.90;99.90
4985;DHT22;2509;49.902;8.600;2023-02-22T12:17:25;14.20;99.90
4985;DHT22;2509;49.902;8.600;2023-02-22T12:20:44;14.30;99.90
4985;DHT22;2509;49.902;8.600;2023-02-22T12:28:20;14.70;99.90
4985;DHT22;2509;49.902;8.600;2023-02-22T12:31:29;14.90;99.90
4985;DHT22;2509;49.902;8.600;2023-02-22T12:35:10;15.10;99.90
4985;DHT22;2509;49.902;8.600;2023-02-22T12:41:54;15.80;99.90
4985;DHT22;2509;49.902;8.600;2023-02-22T12:45:11;16.20;99.90
4985;DHT22;2509;49.902;8.600;2023-02-22T12:48:26;16.40;99.90
4985;DHT22;2509;49.902;8.600;2023-02-22T12:51:36;16.70;99.90
4985;DHT22;2509;49.902;8.600;2023-02-22T12:54:44;17.10;99.90
4985;DHT22;2509;49.902;8.600;2023-02-22T12:57:53;17.80;99.90
4985;DHT22;2509;49.902;8.600;2023-02-22T13:01:01;18.40;99.90
4985;DHT22;2509;49.902;8.600;2023-02-22T13:04:04;18.60;99.90
4985;DHT22;2509;49.902;8.600;2023-02-22T13:07:17;18.80;99.90
4985;DHT22;2509;49.902;8.600;2023-02-22T13:13:31;19.40;99.90
4985;DHT22;2509;49.902;8.600;2023-02-22T13:16:41;19.70;99.60
4985;DHT22;2509;49.902;8.600;2023-02-22T13:19:51;19.90;98.70
4985;DHT22;2509;49.902;8.600;2023-02-22T13:22:59;19.70;99.90
4985;DHT22;2509;49.902;8.600;2023-02-22T13:26:08;20.00;99.90
4985;DHT22;2509;49.902;8.600;2023-02-22T13:29:14;20.20;99.20
4985;DHT22;2509;49.902;8.600;2023-02-22T13:32:27;20.40;98.70
4985;DHT22;2509;49.902;8.600;2023-02-22T13:35:49;20.50;98.50
4985;DHT22;2509;49.902;8.600;2023-02-22T13:39:07;20.20;98.10
4985;DHT22;2509;49.902;8.600;2023-02-22T13:42:28;20.30;98.00
4985;DHT22;2509;49.902;8.600;2023-02-22T13:49:33;19.30;99.50
4985;DHT22;2509;49.902;8.600;2023-02-22T13:52:42;19.20;99.90
4985;DHT22;2509;49.902;8.600;2023-02-22T13:55:51;19.20;99.90
4985;DHT22;2509;49.902;8.600;2023-02-22T13:58:56;19.30;99.90
4985;DHT22;2509;49.902;8.600;2023-02-22T14:01:59;19.30;99.90
4985;DHT22;2509;49.902;8.600;2023-02-22T14:05:35;18.90;99.90
4985;DHT22;2509;49.902;8.600;2023-02-22T14:08:45;18.80;99.90
4985;DHT22;2509;49.902;8.600;2023-02-22T14:11:48;18.70;99.90
4985;DHT22;2509;49.902;8.600;2023-02-22T14:15:14;18.50;99.90
4985;DHT22;2509;49.902;8.600;2023-02-22T14:18:16;18.40;99.90
4985;DHT22;2509;49.902;8.600;2023-02-22T14:21:21;18.50;99.90
4985;DHT22;2509;49.902;8.600;2023-02-22T14:24:23;18.60;99.90
4985;DHT22;2509;49.902;8.600;2023-02-22T14:27:38;18.30;99.90
4985;DHT22;2509;49.902;8.600;2023-02-22T14:30:40;18.20;99.90
4985;DHT22;2509;49.902;8.600;2023-02-22T14:33:55;18.20;99.90
4985;DHT22;2509;49.902;8.600;2023-02-22T14:37:02;18.20;99.90
4985;DHT22;2509;49.902;8.600;2023-02-22T14:40:09;18.20;99.90
4985;DHT22;2509;49.902;8.600;2023-02-22T14:43:20;17.80;99.90
4985;DHT22;2509;49.902;8.600;2023-02-22T14:46:24;17.90;99.90
4985;DHT22;2509;49.902;8.600;2023-02-22T14:49:30;18.00;99.90
4985;DHT22;2509;49.902;8.600;2023-02-22T14:52:37;18.20;99.90
4985;DHT22;2509;49.902;8.600;2023-02-22T14:55:42;18.10;99.90
4985;DHT22;2509;49.902;8.600;2023-02-22T14:58:52;18.00;99.90
4985;DHT22;2509;49.902;8.600;2023-02-22T15:02:05;17.90;99.90
4985;DHT22;2509;49.902;8.600;2023-02-22T15:05:12;17.90;99.90
4985;DHT22;2509;49.902;8.600;2023-02-22T15:08:17;17.40;99.90
4985;DHT22;2509;49.902;8.600;2023-02-22T15:11:29;17.30;99.90
4985;DHT22;2509;49.902;8.600;2023-02-22T15:14:33;17.10;99.90
4985;DHT22;2509;49.902;8.600;2023-02-22T15:17:37;16.90;99.90
4985;DHT22;2509;49.902;8.600;2023-02-22T15:20:39;16.80;99.90
4985;DHT22;2509;49.902;8.600;2023-02-22T15:23:44;16.70;99.90
4985;DHT22;2509;49.902;8.600;2023-02-22T15:26:48;16.50;99.90
4985;DHT22;2509;49.902;8.600;2023-02-22T15:29:56;16.20;99.90
4985;DHT22;2509;49.902;8.600;2023-02-22T15:33:10;15.90;99.90
4985;DHT22;2509;49.902;8.600;2023-02-22T15:36:14;15.80;99.90
4985;DHT22;2509;49.902;8.600;2023-02-22T15:39:20;15.70;99.90
4985;DHT22;2509;49.902;8.600;2023-02-22T15:42:25;15.50;99.90
4985;DHT22;2509;49.902;8.600;2023-02-22T15:45:30;15.30;99.90
4985;DHT22;2509;49.902;8.600;2023-02-22T15:48:32;15.10;99.90
4985;DHT22;2509;49.902;8.600;2023-02-22T15:51:39;14.90;99.90
4985;DHT22;2509;49.902;8.600;2023-02-22T15:54:46;14.80;99.90
4985;DHT22;2509;49.902;8.600;2023-02-22T15:57:50;14.60;99.90
4985;DHT22;2509;49.902;8.600;2023-02-22T16:00:59;14.40;99.90
4985;DHT22;2509;49.902;8.600;2023-02-22T16:04:01;14.30;99.90
4985;DHT22;2509;49.902;8.600;2023-02-22T16:07:05;14.20;99.90
4985;DHT22;2509;49.902;8.600;2023-02-22T16:10:25;14.10;99.90
4985;DHT22;2509;49.902;8.600;2023-02-22T16:13:28;13.90;99.90
4985;DHT22;2509;49.902;8.600;2023-02-22T16:16:32;13.70;99.90
4985;DHT22;2509;49.902;8.600;2023-02-22T16:19:36;13.60;99.90
4985;DHT22;2509;49.902;8.600;2023-02-22T16:22:39;13.50;99.90
4985;DHT22;2509;49.902;8.600;2023-02-22T16:26:00;13.40;99.90
4985;DHT22;2509;49.902;8.600;2023-02-22T16:29:04;13.30;99.90
4985;DHT22;2509;49.902;8.600;2023-02-22T16:32:07;13.20;99.90
4985;DHT22;2509;49.902;8.600;2023-02-22T16:35:08;13.00;99.90
4985;DHT22;2509;49.902;8.600;2023-02-22T16:38:17;12.90;99.90
4985;DHT22;2509;49.902;8.600;2023-02-22T16:41:21;12.70;99.90
4985;DHT22;2509;49.902;8.600;2023-02-22T16:44:24;12.50;99.90
4985;DHT22;2509;49.902;8.600;2023-02-22T16:47:26;12.40;99.90
4985;DHT22;2509;49.902;8.600;2023-02-22T16:50:28;12.30;99.90
4985;DHT22;2509;49.902;8.600;2023-02-22T16:53:31;12.20;99.90
4985;DHT22;2509;49.902;8.600;2023-02-22T16:56:34;12.10;99.90
4985;DHT22;2509;49.902;8.600;2023-02-22T16:59:37;12.00;99.90
4985;DHT22;2509;49.902;8.600;2023-02-22T17:02:40;11.90;99.90
4985;DHT22;2509;49.902;8.600;2023-02-22T17:05:42;11.80;99.90
4985;DHT22;2509;49.902;8.600;2023-02-22T17:08:44;11.80;99.90
4985;DHT22;2509;49.902;8.600;2023-02-22T17:11:48;11.70;99.90
4985;DHT22;2509;49.902;8.600;2023-02-22T17:14:50;11.60;99.90
4985;DHT22;2509;49.902;8.600;2023-02-22T17:17:53;11.50;99.90
4985;DHT22;2509;49.902;8.600;2023-02-22T17:20:55;11.50;99.90
4985;DHT22;2509;49.902;8.600;2023-02-22T17:23:57;11.40;99.90
4985;DHT22;2509;49.902;8.600;2023-02-22T17:27:00;11.30;99.90
4985;DHT22;2509;49.902;8.600;2023-02-22T17:30:02;11.20;99.90
4985;DHT22;2509;49.902;8.600;2023-02-22T17:33:06;11.20;99.90
4985;DHT22;2509;49.902;8.600;2023-02-22T17:36:09;11.10;99.90
4985;DHT22;2509;49.902;8.600;2023-02-22T17:39:12;11.10;99.90
4985;DHT22;2509;49.902;8.600;2023-02-22T17:42:15;11.00;99.90
4985;DHT22;2509;49.902;8.600;2023-02-22T17:45:17;11.00;99.90
4985;DHT22;2509;49.902;8.600;2023-02-22T17:48:19;10.90;99.90
4985;DHT22;2509;49.902;8.600;2023-02-22T17:51:23;10.80;99.90
4985;DHT22;2509;49.902;8.600;2023-02-22T17:54:25;10.80;99.90
4985;DHT22;2509;49.902;8.600;2023-02-22T17:57:28;10.70;99.90
4985;DHT22;2509;49.902;8.600;2023-02-22T18:00:34;10.70;99.90
4985;DHT22;2509;49.902;8.600;2023-02-22T18:03:36;10.60;99.90
4985;DHT22;2509;49.902;8.600;2023-02-22T18:06:39;10.50;99.90
4985;DHT22;2509;49.902;8.600;2023-02-22T18:09:41;10.50;99.90
4985;DHT22;2509;49.902;8.600;2023-02-22T18:12:44;10.50;99.90
4985;DHT22;2509;49.902;8.600;2023-02-22T18:15:47;10.40;99.90
4985;DHT22;2509;49.902;8.600;2023-02-22T18:18:49;10.40;99.90
4985;DHT22;2509;49.902;8.600;2023-02-22T18:21:51;10.40;99.90
4985;DHT22;2509;49.902;8.600;2023-02-22T18:24:53;10.30;99.90
4985;DHT22;2509;49.902;8.600;2023-02-22T18:27:56;10.30;99.90
4985;DHT22;2509;49.902;8.600;2023-02-22T18:30:58;10.20;99.90
4985;DHT22;2509;49.902;8.600;2023-02-22T18:33:59;10.10;99.90
4985;DHT22;2509;49.902;8.600;2023-02-22T18:37:01;10.10;99.90
4985;DHT22;2509;49.902;8.600;2023-02-22T18:40:06;10.10;99.90
4985;DHT22;2509;49.902;8.600;2023-02-22T18:43:11;10.10;99.90
4985;DHT22;2509;49.902;8.600;2023-02-22T18:46:14;10.00;99.90
4985;DHT22;2509;49.902;8.600;2023-02-22T18:49:16;10.00;99.90
4985;DHT22;2509;49.902;8.600;2023-02-22T18:52:18;9.90;99.90
4985;DHT22;2509;49.902;8.600;2023-02-22T18:55:23;9.80;99.90
4985;DHT22;2509;49.902;8.600;2023-02-22T18:58:26;9.70;99.90
4985;DHT22;2509;49.902;8.600;2023-02-22T19:01:28;9.60;99.90
4985;DHT22;2509;49.902;8.600;2023-02-22T19:04:30;9.50;99.90
4985;DHT22;2509;49.902;8.600;2023-02-22T19:07:32;9.50;99.90
4985;DHT22;2509;49.902;8.600;2023-02-22T19:10:34;9.50;99.90
4985;DHT22;2509;49.902;8.600;2023-02-22T19:13:37;9.50;99.90
4985;DHT22;2509;49.902;8.600;2023-02-22T19:16:39;9.50;99.90
4985;DHT22;2509;49.902;8.600;2023-02-22T19:19:41;9.50;99.90
4985;DHT22;2509;49.902;8.600;2023-02-22T19:22:43;9.50;99.90
4985;DHT22;2509;49.902;8.600;2023-02-22T19:25:46;9.50;99.90
4985;DHT22;2509;49.902;8.600;2023-02-22T19:28:50;9.40;99.90
4985;DHT22;2509;49.902;8.600;2023-02-22T19:31:52;9.40;99.90
4985;DHT22;2509;49.902;8.600;2023-02-22T19:34:54;9.40;99.90
4985;DHT22;2509;49.902;8.600;2023-02-22T19:38:01;9.40;99.90
4985;DHT22;2509;49.902;8.600;2023-02-22T19:41:07;9.40;99.90
4985;DHT22;2509;49.902;8.600;2023-02-22T19:44:11;9.40;99.90
4985;DHT22;2509;49.902;8.600;2023-02-22T19:47:13;9.40;99.90
4985;DHT22;2509;49.902;8.600;2023-02-22T19:50:15;9.40;99.90
4985;DHT22;2509;49.902;8.600;2023-02-22T19:53:18;9.40;99.90
4985;DHT22;2509;49.902;8.600;2023-02-22T19:56:21;9.30;99.90
4985;DHT22;2509;49.902;8.600;2023-02-22T19:59:27;9.30;99.90
4985;DHT22;2509;49.902;8.600;2023-02-22T20:02:29;9.30;99.90
4985;DHT22;2509;49.902;8.600;2023-02-22T20:05:31;9.30;99.90
4985;DHT22;2509;49.902;8.600;2023-02-22T20:08:36;9.40;99.90
4985;DHT22;2509;49.902;8.600;2023-02-22T20:11:41;9.50;99.90
4985;DHT22;2509;49.902;8.600;2023-02-22T20:14:44;9.50;99.90
4985;DHT22;2509;49.902;8.600;2023-02-22T20:17:46;9.50;99.90
4985;DHT22;2509;49.902;8.600;2023-02-22T20:20:49;9.50;99.90
4985;DHT22;2509;49.902;8.600;2023-02-22T20:23:51;9.60;99.90
4985;DHT22;2509;49.902;8.600;2023-02-22T20:26:56;9.60;99.90
4985;DHT22;2509;49.902;8.600;2023-02-22T20:29:59;9.60;99.90
4985;DHT22;2509;49.902;8.600;2023-02-22T20:33:01;9.70;99.90
4985;DHT22;2509;49.902;8.600;2023-02-22T20:36:03;9.70;99.90
4985;DHT22;2509;49.902;8.600;2023-02-22T20:39:06;9.70;99.90
4985;DHT22;2509;49.902;8.600;2023-02-22T20:42:12;9.70;99.90
4985;DHT22;2509;49.902;8.600;2023-02-22T20:45:16;9.70;99.90
4985;DHT22;2509;49.902;8.600;2023-02-22T20:48:19;9.70;99.90
4985;DHT22;2509;49.902;8.600;2023-02-22T20:51:21;9.70;99.90
4985;DHT22;2509;49.902;8.600;2023-02-22T20:54:23;9.70;99.90